sensor_id;sensor_type;location;lat;lon;timestamp;temperature;humidity
10245;DHT22;5167;52.164;10.530;2023-12-04T00:01:15;-0.30;35.00
10245;DHT22;5167;52.164;10.530;2023-12-04T00:03:40;-0.20;34.90
10245;DHT22;5167;52.164;10.530;2023-12-04T00:06:06;-0.30;35.00
10245;DHT22;5167;52.164;10.530;2023-12-04T00:08:32;-0.30;35.20
10245;DHT22;5167;52.164;10.530;2023-12-04T00:10:58;-0.30;35.40
10245;DHT22;5167;52.164;10.530;2023-12-04T00:13:24;-0.30;35.10
10245;DHT22;5167;52.164;10.530;2023-12-04T00:15:49;-0.30;35.50
10245;DHT22;5167;52.164;10.530;2023-12-04T00:18:15;-0.40;35.40
10245;DHT22;5167;52.164;10.530;2023-12-04T00:20:40;-0.30;35.70
10245;DHT22;5167;52.164;10.530;2023-12-04T00:23:06;-0.40;36.00
10245;DHT22;5167;52.164;10.530;2023-12-04T00:25:31;-0.40;36.10
10245;DHT22;5167;52.164;10.530;2023-12-04T00:27:57;-0.30;36.00
10245;DHT22;5167;52.164;10.530;2023-12-04T00:30:22;-0.40;35.80
10245;DHT22;5167;52.164;10.530;2023-12-04T00:32:48;-0.40;35.90
10245;DHT22;5167;52.164;10.530;2023-12-04T00:35:13;-0.30;36.10
10245;DHT22;5167;52.164;10.530;2023-12-04T00:37:39;-0.20;36.20
10245;DHT22;5167;52.164;10.530;2023-12-04T00:40:06;-0.30;36.00
10245;DHT22;5167;52.164;10.530;2023-12-04T00:42:33;-0.30;35.90
10245;DHT22;5167;52.164;10.530;2023-12-04T00:44:58;-0.30;35.80
10245;DHT22;5167;52.164;10.530;2023-12-04T00:47:24;-0.30;35.90
10245;DHT22;5167;52.164;10.530;2023-12-04T00:49:49;-0.40;35.80
10245;DHT22;5167;52.164;10.530;2023-12-04T00:52:14;-0.40;35.90
10245;DHT22;5167;52.164;10.530;2023-12-04T00:54:40;-0.30;35.70
10245;DHT22;5167;52.164;10.530;2023-12-04T00:57:08;-0.30;36.00
10245;DHT22;5167;52.164;10.530;2023-12-04T00:59:34;-0.30;35.60
10245;DHT22;5167;52.164;10.530;2023-12-04T01:02:00;-0.40;35.90
10245;DHT22;5167;52.164;10.530;2023-12-04T01:04:26;-0.40;35.90
10245;DHT22;5167;52.164;10.530;2023-12-04T01:06:52;-0.40;35.90
10245;DHT22;5167;52.164;10.530;2023-12-04T01:09:17;-0.30;35.90
10245;DHT22;5167;52.164;10.530;2023-12-04T01:11:43;-0.30;36.00
10245;DHT22;5167;52.164;10.530;2023-12-04T01:14:08;-0.30;35.70
10245;DHT22;5167;52.164;10.530;2023-12-04T01:16:34;-0.30;35.40
10245;DHT22;5167;52.164;10.530;2023-12-04T01:18:59;-0.30;35.40
10245;DHT22;5167;52.164;10.530;2023-12-04T01:21:25;-0.30;35.40
10245;DHT22;5167;52.164;10.530;2023-12-04T01:23:50;-0.40;35.20
10245;DHT22;5167;52.164;10.530;2023-12-04T01:26:16;-0.30;35.50
10245;DHT22;5167;52.164;10.530;2023-12-04T01:28:41;-0.30;35.40
10245;DHT22;5167;52.164;10.530;2023-12-04T01:31:07;-0.30;36.20
10245;DHT22;5167;52.164;10.530;2023-12-04T01:33:32;-0.30;36.70
10245;DHT22;5167;52.164;10.530;2023-12-04T01:35:58;-0.30;35.80
10245;DHT22;5167;52.164;10.530;2023-12-04T01:38:23;-0.30;35.30
10245;DHT22;5167;52.164;10.530;2023-12-04T01:40:49;-0.40;36.00
10245;DHT22;5167;52.164;10.530;2023-12-04T01:43:14;-0.30;35.70
10245;DHT22;5167;52.164;10.530;2023-12-04T01:45:40;-0.30;35.70
10245;DHT22;5167;52.164;10.530;2023-12-04T01:48:07;-0.30;36.20
10245;DHT22;5167;52.164;10.530;2023-12-04T01:50:34;-0.30;36.00
10245;DHT22;5167;52.164;10.530;2023-12-04T01:53:00;-0.30;36.20
10245;DHT22;5167;52.164;10.530;2023-12-04T01:55:27;-0.30;36.50
10245;DHT22;5167;52.164;10.530;2023-12-04T01:57:54;-0.30;36.60
10245;DHT22;5167;52.164;10.530;2023-12-04T02:00:21;-0.30;36.30
10245;DHT22;5167;52.164;10.530;2023-12-04T02:02:47;-0.20;36.50
10245;DHT22;5167;52.164;10.530;2023-12-04T02:05:12;-0.20;36.50
10245;DHT22;5167;52.164;10.530;2023-12-04T02:07:41;-0.20;36.30
10245;DHT22;5167;52.164;10.530;2023-12-04T02:10:07;-0.10;36.00
10245;DHT22;5167;52.164;10.530;2023-12-04T02:12:32;-0.20;36.00
10245;DHT22;5167;52.164;10.530;2023-12-04T02:14:58;-0.10;35.70
10245;DHT22;5167;52.164;10.530;2023-12-04T02:17:24;-0.10;35.90
10245;DHT22;5167;52.164;10.530;2023-12-04T02:19:51;-0.20;35.00
10245;DHT22;5167;52.164;10.530;2023-12-04T02:22:18;-0.10;35.20
10245;DHT22;5167;52.164;10.530;2023-12-04T02:24:44;-0.20;35.10
10245;DHT22;5167;52.164;10.530;2023-12-04T02:27:23;-0.10;35.50
10245;DHT22;5167;52.164;10.530;2023-12-04T02:29:56;-0.10;35.30
10245;DHT22;5167;52.164;10.530;2023-12-04T02:32:23;-0.10;35.30
10245;DHT22;5167;52.164;10.530;2023-12-04T02:34:50;-0.10;35.00
10245;DHT22;5167;52.164;10.530;2023-12-04T02:37:17;-0.10;35.00
10245;DHT22;5167;52.164;10.530;2023-12-04T02:39:43;-0.10;35.40
10245;DHT22;5167;52.164;10.530;2023-12-04T02:42:08;-0.10;35.60
10245;DHT22;5167;52.164;10.530;2023-12-04T02:44:34;-0.10;35.60
10245;DHT22;5167;52.164;10.530;2023-12-04T02:47:00;-0.10;35.70
10245;DHT22;5167;52.164;10.530;2023-12-04T02:49:25;0.00;36.00
10245;DHT22;5167;52.164;10.530;2023-12-04T02:51:51;0.00;36.10
10245;DHT22;5167;52.164;10.530;2023-12-04T02:54:16;0.00;35.90
10245;DHT22;5167;52.164;10.530;2023-12-04T02:56:42;0.00;36.10
10245;DHT22;5167;52.164;10.530;2023-12-04T02:59:07;-0.10;35.90
10245;DHT22;5167;52.164;10.530;2023-12-04T03:01:33;0.00;36.40
10245;DHT22;5167;52.164;10.530;2023-12-04T03:03:58;0.10;36.10
10245;DHT22;5167;52.164;10.530;2023-12-04T03:06:24;0.00;36.60
10245;DHT22;5167;52.164;10.530;2023-12-04T03:08:49;0.10;36.50
10245;DHT22;5167;52.164;10.530;2023-12-04T03:11:15;0.10;36.40
10245;DHT22;5167;52.164;10.530;2023-12-04T03:13:40;0.10;36.40
10245;DHT22;5167;52.164;10.530;2023-12-04T03:16:06;0.10;36.30
10245;DHT22;5167;52.164;10.530;2023-12-04T03:18:39;0.20;36.40
10245;DHT22;5167;52.164;10.530;2023-12-04T03:21:06;0.20;36.20
10245;DHT22;5167;52.164;10.530;2023-12-04T03:23:32;0.10;36.20
10245;DHT22;5167;52.164;10.530;2023-12-04T03:25:57;0.10;36.20
10245;DHT22;5167;52.164;10.530;2023-12-04T03:28:22;0.10;36.30
10245;DHT22;5167;52.164;10.530;2023-12-04T03:30:48;0.20;36.70
10245;DHT22;5167;52.164;10.530;2023-12-04T03:33:13;0.10;36.60
10245;DHT22;5167;52.164;10.530;2023-12-04T03:35:39;0.20;36.80
10245;DHT22;5167;52.164;10.530;2023-12-04T03:38:04;0.10;37.00
10245;DHT22;5167;52.164;10.530;2023-12-04T03:40:30;0.20;37.00
10245;DHT22;5167;52.164;10.530;2023-12-04T03:42:56;0.20;36.80
10245;DHT22;5167;52.164;10.530;2023-12-04T03:45:21;0.10;36.30
10245;DHT22;5167;52.164;10.530;2023-12-04T03:47:47;0.10;37.10
10245;DHT22;5167;52.164;10.530;2023-12-04T03:50:12;0.20;37.30
10245;DHT22;5167;52.164;10.530;2023-12-04T03:52:38;0.10;37.50
10245;DHT22;5167;52.164;10.530;2023-12-04T03:55:04;0.20;37.70
10245;DHT22;5167;52.164;10.530;2023-12-04T03:57:29;0.20;38.20
10245;DHT22;5167;52.164;10.530;2023-12-04T03:59:55;0.20;38.30
10245;DHT22;5167;52.164;10.530;2023-12-04T04:02:20;0.30;38.60
10245;DHT22;5167;52.164;10.530;2023-12-04T04:04:46;0.20;39.10
10245;DHT22;5167;52.164;10.530;2023-12-04T04:07:11;0.20;39.00
10245;DHT22;5167;52.164;10.530;2023-12-04T04:09:37;0.30;39.20
10245;DHT22;5167;52.164;10.530;2023-12-04T04:12:03;0.30;38.70
10245;DHT22;5167;52.164;10.530;2023-12-04T04:14:28;0.30;39.00
10245;DHT22;5167;52.164;10.530;2023-12-04T04:16:54;0.30;39.40
10245;DHT22;5167;52.164;10.530;2023-12-04T04:19:19;0.30;39.70
10245;DHT22;5167;52.164;10.530;2023-12-04T04:21:44;0.30;39.40
10245;DHT22;5167;52.164;10.530;2023-12-04T04:24:10;0.30;39.10
10245;DHT22;5167;52.164;10.530;2023-12-04T04:26:35;0.40;39.90
10245;DHT22;5167;52.164;10.530;2023-12-04T04:29:01;0.40;39.70
10245;DHT22;5167;52.164;10.530;2023-12-04T04:31:26;0.50;40.30
10245;DHT22;5167;52.164;10.530;2023-12-04T04:33:52;0.50;39.60
10245;DHT22;5167;52.164;10.530;2023-12-04T04:36:17;0.50;40.40
10245;DHT22;5167;52.164;10.530;2023-12-04T04:38:43;0.60;40.10
10245;DHT22;5167;52.164;10.530;2023-12-04T04:41:13;0.70;40.10
10245;DHT22;5167;52.164;10.530;2023-12-04T04:43:39;0.70;39.50
10245;DHT22;5167;52.164;10.530;2023-12-04T04:46:05;0.70;39.20
10245;DHT22;5167;52.164;10.530;2023-12-04T04:48:30;0.80;39.00
10245;DHT22;5167;52.164;10.530;2023-12-04T04:50:56;0.80;39.20
10245;DHT22;5167;52.164;10.530;2023-12-04T04:53:22;0.90;39.50
10245;DHT22;5167;52.164;10.530;2023-12-04T04:55:47;0.90;39.60
10245;DHT22;5167;52.164;10.530;2023-12-04T04:58:13;0.90;39.70
10245;DHT22;5167;52.164;10.530;2023-12-04T05:00:38;0.90;39.80
10245;DHT22;5167;52.164;10.530;2023-12-04T05:03:04;1.00;39.60
10245;DHT22;5167;52.164;10.530;2023-12-04T05:05:29;1.00;39.70
10245;DHT22;5167;52.164;10.530;2023-12-04T05:07:55;1.10;39.50
10245;DHT22;5167;52.164;10.530;2023-12-04T05:10:20;1.10;39.50
10245;DHT22;5167;52.164;10.530;2023-12-04T05:12:46;1.10;39.50
10245;DHT22;5167;52.164;10.530;2023-12-04T05:15:11;1.20;39.80
10245;DHT22;5167;52.164;10.530;2023-12-04T05:17:36;1.30;39.40
10245;DHT22;5167;52.164;10.530;2023-12-04T05:20:02;1.30;38.20
10245;DHT22;5167;52.164;10.530;2023-12-04T05:22:28;1.30;36.80
10245;DHT22;5167;52.164;10.530;2023-12-04T05:24:53;1.30;36.40
10245;DHT22;5167;52.164;10.530;2023-12-04T05:27:19;1.30;34.50
10245;DHT22;5167;52.164;10.530;2023-12-04T05:29:44;1.30;33.40
10245;DHT22;5167;52.164;10.530;2023-12-04T05:32:10;1.20;32.80
10245;DHT22;5167;52.164;10.530;2023-12-04T05:34:35;1.30;33.10
10245;DHT22;5167;52.164;10.530;2023-12-04T05:37:00;1.20;31.60
10245;DHT22;5167;52.164;10.530;2023-12-04T05:39:26;1.20;31.10
10245;DHT22;5167;52.164;10.530;2023-12-04T05:41:51;1.30;31.20
10245;DHT22;5167;52.164;10.530;2023-12-04T05:44:17;1.20;30.10
10245;DHT22;5167;52.164;10.530;2023-12-04T05:46:42;1.30;30.20
10245;DHT22;5167;52.164;10.530;2023-12-04T05:49:08;1.20;29.50
10245;DHT22;5167;52.164;10.530;2023-12-04T05:51:33;1.20;29.40
10245;DHT22;5167;52.164;10.530;2023-12-04T05:53:59;1.20;29.20
10245;DHT22;5167;52.164;10.530;2023-12-04T05:56:24;1.20;29.40
10245;DHT22;5167;52.164;10.530;2023-12-04T05:58:49;1.20;29.50
10245;DHT22;5167;52.164;10.530;2023-12-04T06:01:15;1.30;29.70
10245;DHT22;5167;52.164;10.530;2023-12-04T06:03:40;1.20;29.30
10245;DHT22;5167;52.164;10.530;2023-12-04T06:06:06;1.30;28.60
10245;DHT22;5167;52.164;10.530;2023-12-04T06:08:32;1.30;28.00
10245;DHT22;5167;52.164;10.530;2023-12-04T06:10:57;1.30;28.20
10245;DHT22;5167;52.164;10.530;2023-12-04T06:13:23;1.30;27.90
10245;DHT22;5167;52.164;10.530;2023-12-04T06:15:48;1.30;28.00
10245;DHT22;5167;52.164;10.530;2023-12-04T06:18:14;1.20;27.30
10245;DHT22;5167;52.164;10.530;2023-12-04T06:20:40;1.20;27.10
10245;DHT22;5167;52.164;10.530;2023-12-04T06:23:05;1.20;27.10
10245;DHT22;5167;52.164;10.530;2023-12-04T06:25:31;1.20;27.00
10245;DHT22;5167;52.164;10.530;2023-12-04T06:27:57;1.30;26.70
10245;DHT22;5167;52.164;10.530;2023-12-04T06:30:22;1.30;27.40
10245;DHT22;5167;52.164;10.530;2023-12-04T06:32:48;1.30;27.20
10245;DHT22;5167;52.164;10.530;2023-12-04T06:35:14;1.40;27.40
10245;DHT22;5167;52.164;10.530;2023-12-04T06:37:40;1.40;27.20
10245;DHT22;5167;52.164;10.530;2023-12-04T06:40:06;1.50;27.50
10245;DHT22;5167;52.164;10.530;2023-12-04T06:42:35;1.50;26.60
10245;DHT22;5167;52.164;10.530;2023-12-04T06:45:00;1.40;26.60
10245;DHT22;5167;52.164;10.530;2023-12-04T06:47:28;1.50;26.80
10245;DHT22;5167;52.164;10.530;2023-12-04T06:49:55;1.50;26.70
10245;DHT22;5167;52.164;10.530;2023-12-04T06:52:21;1.60;26.40
10245;DHT22;5167;52.164;10.530;2023-12-04T06:54:46;1.50;26.00
10245;DHT22;5167;52.164;10.530;2023-12-04T06:57:12;1.50;26.40
10245;DHT22;5167;52.164;10.530;2023-12-04T06:59:41;1.50;26.20
10245;DHT22;5167;52.164;10.530;2023-12-04T07:02:06;1.60;26.10
10245;DHT22;5167;52.164;10.530;2023-12-04T07:04:32;1.50;25.90
10245;DHT22;5167;52.164;10.530;2023-12-04T07:06:58;1.60;26.40
10245;DHT22;5167;52.164;10.530;2023-12-04T07:09:26;1.60;26.10
10245;DHT22;5167;52.164;10.530;2023-12-04T07:11:52;1.50;25.70
10245;DHT22;5167;52.164;10.530;2023-12-04T07:14:18;1.50;25.40
10245;DHT22;5167;52.164;10.530;2023-12-04T07:16:44;1.40;25.50
10245;DHT22;5167;52.164;10.530;2023-12-04T07:19:10;1.40;25.10
10245;DHT22;5167;52.164;10.530;2023-12-04T07:21:36;1.40;25.00
10245;DHT22;5167;52.164;10.530;2023-12-04T07:24:02;1.40;25.00
10245;DHT22;5167;52.164;10.530;2023-12-04T07:26:28;1.40;24.90
10245;DHT22;5167;52.164;10.530;2023-12-04T07:28:53;1.50;24.90
10245;DHT22;5167;52.164;10.530;2023-12-04T07:31:19;1.50;24.40
10245;DHT22;5167;52.164;10.530;2023-12-04T07:33:44;1.50;24.60
10245;DHT22;5167;52.164;10.530;2023-12-04T07:36:10;1.50;24.10
10245;DHT22;5167;52.164;10.530;2023-12-04T07:38:36;1.50;24.70
10245;DHT22;5167;52.164;10.530;2023-12-04T07:41:01;1.60;24.00
10245;DHT22;5167;52.164;10.530;2023-12-04T07:43:26;1.60;23.70
10245;DHT22;5167;52.164;10.530;2023-12-04T07:45:54;1.60;24.30
10245;DHT22;5167;52.164;10.530;2023-12-04T07:48:20;1.50;23.80
10245;DHT22;5167;52.164;10.530;2023-12-04T07:50:45;1.70;24.30
10245;DHT22;5167;52.164;10.530;2023-12-04T07:53:11;1.70;24.60
10245;DHT22;5167;52.164;10.530;2023-12-04T07:55:37;1.70;24.30
10245;DHT22;5167;52.164;10.530;2023-12-04T07:58:02;1.60;24.80
10245;DHT22;5167;52.164;10.530;2023-12-04T08:00:28;1.70;25.60
10245;DHT22;5167;52.164;10.530;2023-12-04T08:02:53;1.70;25.50
10245;DHT22;5167;52.164;10.530;2023-12-04T08:05:19;1.80;25.50
10245;DHT22;5167;52.164;10.530;2023-12-04T08:07:44;1.80;25.30
10245;DHT22;5167;52.164;10.530;2023-12-04T08:10:10;1.80;25.40
10245;DHT22;5167;52.164;10.530;2023-12-04T08:12:36;1.90;25.60
10245;DHT22;5167;52.164;10.530;2023-12-04T08:15:03;1.90;26.10
10245;DHT22;5167;52.164;10.530;2023-12-04T08:17:29;1.90;25.60
10245;DHT22;5167;52.164;10.530;2023-12-04T08:19:55;1.90;24.70
10245;DHT22;5167;52.164;10.530;2023-12-04T08:22:20;1.90;24.70
10245;DHT22;5167;52.164;10.530;2023-12-04T08:24:45;2.00;24.80
10245;DHT22;5167;52.164;10.530;2023-12-04T08:27:11;2.00;25.30
10245;DHT22;5167;52.164;10.530;2023-12-04T08:29:39;1.90;25.40
10245;DHT22;5167;52.164;10.530;2023-12-04T08:32:05;2.00;25.30
10245;DHT22;5167;52.164;10.530;2023-12-04T08:34:30;2.00;25.00
10245;DHT22;5167;52.164;10.530;2023-12-04T08:36:56;2.10;25.40
10245;DHT22;5167;52.164;10.530;2023-12-04T08:39:22;2.10;25.20
10245;DHT22;5167;52.164;10.530;2023-12-04T08:41:47;2.10;25.20
10245;DHT22;5167;52.164;10.530;2023-12-04T08:44:14;2.10;24.60
10245;DHT22;5167;52.164;10.530;2023-12-04T08:46:39;2.10;24.70
10245;DHT22;5167;52.164;10.530;2023-12-04T08:49:05;2.10;24.30
10245;DHT22;5167;52.164;10.530;2023-12-04T08:51:30;2.10;24.50
10245;DHT22;5167;52.164;10.530;2023-12-04T08:53:56;2.10;24.10
10245;DHT22;5167;52.164;10.530;2023-12-04T08:56:22;2.10;24.60
10245;DHT22;5167;52.164;10.530;2023-12-04T08:58:48;2.20;23.90
10245;DHT22;5167;52.164;10.530;2023-12-04T09:01:15;2.10;24.10
10245;DHT22;5167;52.164;10.530;2023-12-04T09:03:41;2.10;24.20
10245;DHT22;5167;52.164;10.530;2023-12-04T09:06:06;2.20;24.10
10245;DHT22;5167;52.164;10.530;2023-12-04T09:08:32;2.20;24.60
10245;DHT22;5167;52.164;10.530;2023-12-04T09:10:58;2.10;24.60
10245;DHT22;5167;52.164;10.530;2023-12-04T09:13:23;2.20;24.10
10245;DHT22;5167;52.164;10.530;2023-12-04T09:15:49;2.20;23.70
10245;DHT22;5167;52.164;10.530;2023-12-04T09:18:14;2.20;23.80
10245;DHT22;5167;52.164;10.530;2023-12-04T09:20:41;2.30;24.20
10245;DHT22;5167;52.164;10.530;2023-12-04T09:23:06;2.40;24.30
10245;DHT22;5167;52.164;10.530;2023-12-04T09:25:32;2.40;24.50
10245;DHT22;5167;52.164;10.530;2023-12-04T09:27:57;2.50;23.50
10245;DHT22;5167;52.164;10.530;2023-12-04T09:30:23;2.50;23.20
10245;DHT22;5167;52.164;10.530;2023-12-04T09:32:48;2.60;23.70
10245;DHT22;5167;52.164;10.530;2023-12-04T09:35:14;2.60;24.00
10245;DHT22;5167;52.164;10.530;2023-12-04T09:37:40;2.70;23.90
10245;DHT22;5167;52.164;10.530;2023-12-04T09:40:06;2.70;23.60
10245;DHT22;5167;52.164;10.530;2023-12-04T09:42:34;2.70;23.50
10245;DHT22;5167;52.164;10.530;2023-12-04T09:44:59;2.80;23.10
10245;DHT22;5167;52.164;10.530;2023-12-04T09:47:27;2.80;23.00
10245;DHT22;5167;52.164;10.530;2023-12-04T09:49:54;2.80;22.20
10245;DHT22;5167;52.164;10.530;2023-12-04T09:52:22;2.70;22.60
10245;DHT22;5167;52.164;10.530;2023-12-04T09:54:48;2.80;21.70
10245;DHT22;5167;52.164;10.530;2023-12-04T09:57:14;2.80;22.10
10245;DHT22;5167;52.164;10.530;2023-12-04T09:59:40;2.80;21.90
10245;DHT22;5167;52.164;10.530;2023-12-04T10:02:06;2.80;21.60
10245;DHT22;5167;52.164;10.530;2023-12-04T10:04:32;2.70;22.30
10245;DHT22;5167;52.164;10.530;2023-12-04T10:06:57;2.80;21.00
10245;DHT22;5167;52.164;10.530;2023-12-04T10:09:23;2.70;21.40
10245;DHT22;5167;52.164;10.530;2023-12-04T10:11:50;2.80;20.70
10245;DHT22;5167;52.164;10.530;2023-12-04T10:14:18;2.80;21.10
10245;DHT22;5167;52.164;10.530;2023-12-04T10:16:44;2.70;21.10
10245;DHT22;5167;52.164;10.530;2023-12-04T10:21:46;2.80;19.00
10245;DHT22;5167;52.164;10.530;2023-12-04T10:24:13;2.80;18.60
10245;DHT22;5167;52.164;10.530;2023-12-04T10:26:51;2.80;18.70
10245;DHT22;5167;52.164;10.530;2023-12-04T10:29:17;2.80;18.60
10245;DHT22;5167;52.164;10.530;2023-12-04T10:31:42;2.90;18.40
10245;DHT22;5167;52.164;10.530;2023-12-04T10:34:08;2.90;17.70
10245;DHT22;5167;52.164;10.530;2023-12-04T10:36:37;2.90;17.90
10245;DHT22;5167;52.164;10.530;2023-12-04T10:39:03;2.90;17.70
10245;DHT22;5167;52.164;10.530;2023-12-04T10:41:32;3.00;17.40
10245;DHT22;5167;52.164;10.530;2023-12-04T10:43:57;3.00;17.30
10245;DHT22;5167;52.164;10.530;2023-12-04T10:46:29;2.90;17.40
10245;DHT22;5167;52.164;10.530;2023-12-04T10:48:56;3.00;16.70
10245;DHT22;5167;52.164;10.530;2023-12-04T10:51:22;2.90;16.70
10245;DHT22;5167;52.164;10.530;2023-12-04T10:53:49;2.90;16.70
10245;DHT22;5167;52.164;10.530;2023-12-04T10:56:19;2.90;16.70
10245;DHT22;5167;52.164;10.530;2023-12-04T10:58:51;2.90;16.80
10245;DHT22;5167;52.164;10.530;2023-12-04T11:01:19;2.80;16.30
10245;DHT22;5167;52.164;10.530;2023-12-04T11:03:48;2.80;16.20
10245;DHT22;5167;52.164;10.530;2023-12-04T11:06:16;2.70;16.80
10245;DHT22;5167;52.164;10.530;2023-12-04T11:08:42;2.70;16.90
10245;DHT22;5167;52.164;10.530;2023-12-04T11:11:18;2.70;16.90
10245;DHT22;5167;52.164;10.530;2023-12-04T11:13:50;2.80;17.00
10245;DHT22;5167;52.164;10.530;2023-12-04T11:16:33;2.70;17.00
10245;DHT22;5167;52.164;10.530;2023-12-04T11:19:14;2.80;17.20
10245;DHT22;5167;52.164;10.530;2023-12-04T11:21:44;2.80;16.80
10245;DHT22;5167;52.164;10.530;2023-12-04T11:24:11;2.80;16.70
10245;DHT22;5167;52.164;10.530;2023-12-04T11:26:37;2.80;15.80
10245;DHT22;5167;52.164;10.530;2023-12-04T11:29:03;2.70;16.40
10245;DHT22;5167;52.164;10.530;2023-12-04T11:31:29;2.70;16.40
10245;DHT22;5167;52.164;10.530;2023-12-04T11:34:01;2.70;16.60
10245;DHT22;5167;52.164;10.530;2023-12-04T11:36:27;2.80;16.60
10245;DHT22;5167;52.164;10.530;2023-12-04T11:38:53;2.90;16.50
10245;DHT22;5167;52.164;10.530;2023-12-04T11:41:20;2.90;15.70
10245;DHT22;5167;52.164;10.530;2023-12-04T11:43:46;2.80;15.80
10245;DHT22;5167;52.164;10.530;2023-12-04T11:46:27;2.90;15.60
10245;DHT22;5167;52.164;10.530;2023-12-04T11:51:55;2.90;16.30
10245;DHT22;5167;52.164;10.530;2023-12-04T11:54:22;3.00;16.30
10245;DHT22;5167;52.164;10.530;2023-12-04T11:59:41;3.10;15.50
10245;DHT22;5167;52.164;10.530;2023-12-04T12:02:08;3.10;14.90
10245;DHT22;5167;52.164;10.530;2023-12-04T12:04:34;3.00;15.10
10245;DHT22;5167;52.164;10.530;2023-12-04T12:07:00;3.00;15.50
10245;DHT22;5167;52.164;10.530;2023-12-04T12:09:32;3.10;15.60
10245;DHT22;5167;52.164;10.530;2023-12-04T12:12:02;3.20;16.10
10245;DHT22;5167;52.164;10.530;2023-12-04T12:14:29;3.30;16.60
10245;DHT22;5167;52.164;10.530;2023-12-04T12:16:55;3.30;16.80
10245;DHT22;5167;52.164;10.530;2023-12-04T12:19:21;3.30;16.80
10245;DHT22;5167;52.164;10.530;2023-12-04T12:21:48;3.40;16.40
10245;DHT22;5167;52.164;10.530;2023-12-04T12:24:14;3.40;16.80
10245;DHT22;5167;52.164;10.530;2023-12-04T12:26:40;3.40;17.10
10245;DHT22;5167;52.164;10.530;2023-12-04T12:29:06;3.40;16.60
10245;DHT22;5167;52.164;10.530;2023-12-04T12:31:32;3.50;16.50
10245;DHT22;5167;52.164;10.530;2023-12-04T12:33:57;3.50;15.50
10245;DHT22;5167;52.164;10.530;2023-12-04T12:36:23;3.40;14.90
10245;DHT22;5167;52.164;10.530;2023-12-04T12:38:48;3.50;14.40
10245;DHT22;5167;52.164;10.530;2023-12-04T12:41:18;3.40;14.60
10245;DHT22;5167;52.164;10.530;2023-12-04T12:43:44;3.50;14.30
10245;DHT22;5167;52.164;10.530;2023-12-04T12:46:10;3.50;13.10
10245;DHT22;5167;52.164;10.530;2023-12-04T12:48:36;3.50;12.40
10245;DHT22;5167;52.164;10.530;2023-12-04T12:51:05;3.50;11.80
10245;DHT22;5167;52.164;10.530;2023-12-04T12:53:34;3.50;11.00
10245;DHT22;5167;52.164;10.530;2023-12-04T12:56:00;3.40;11.50
10245;DHT22;5167;52.164;10.530;2023-12-04T12:58:29;3.20;11.60
10245;DHT22;5167;52.164;10.530;2023-12-04T13:00:55;3.20;12.30
10245;DHT22;5167;52.164;10.530;2023-12-04T13:03:20;3.10;12.40
10245;DHT22;5167;52.164;10.530;2023-12-04T13:05:47;3.10;12.60
10245;DHT22;5167;52.164;10.530;2023-12-04T13:08:12;3.00;12.60
10245;DHT22;5167;52.164;10.530;2023-12-04T13:10:40;3.00;13.10
10245;DHT22;5167;52.164;10.530;2023-12-04T13:13:13;3.00;13.70
10245;DHT22;5167;52.164;10.530;2023-12-04T13:15:38;3.00;14.00
10245;DHT22;5167;52.164;10.530;2023-12-04T13:18:04;3.00;14.00
10245;DHT22;5167;52.164;10.530;2023-12-04T13:20:29;3.00;13.20
10245;DHT22;5167;52.164;10.530;2023-12-04T13:22:55;3.00;13.70
10245;DHT22;5167;52.164;10.530;2023-12-04T13:25:21;3.10;14.10
10245;DHT22;5167;52.164;10.530;2023-12-04T13:27:48;3.00;14.40
10245;DHT22;5167;52.164;10.530;2023-12-04T13:30:13;3.10;14.20
10245;DHT22;5167;52.164;10.530;2023-12-04T13:32:39;3.20;14.00
10245;DHT22;5167;52.164;10.530;2023-12-04T13:35:05;3.10;13.70
10245;DHT22;5167;52.164;10.530;2023-12-04T13:37:34;3.10;14.10
10245;DHT22;5167;52.164;10.530;2023-12-04T13:40:02;3.10;14.40
10245;DHT22;5167;52.164;10.530;2023-12-04T13:42:32;3.10;15.10
10245;DHT22;5167;52.164;10.530;2023-12-04T13:45:16;3.10;15.60
10245;DHT22;5167;52.164;10.530;2023-12-04T13:47:41;3.10;15.20
10245;DHT22;5167;52.164;10.530;2023-12-04T13:50:08;3.10;15.40
10245;DHT22;5167;52.164;10.530;2023-12-04T13:52:34;3.10;14.90
10245;DHT22;5167;52.164;10.530;2023-12-04T13:55:00;3.00;14.60
10245;DHT22;5167;52.164;10.530;2023-12-04T13:57:26;3.00;14.60
10245;DHT22;5167;52.164;10.530;2023-12-04T13:59:54;3.00;14.90
10245;DHT22;5167;52.164;10.530;2023-12-04T14:02:22;2.90;15.20
10245;DHT22;5167;52.164;10.530;2023-12-04T14:04:48;2.90;15.60
10245;DHT22;5167;52.164;10.530;2023-12-04T14:07:14;2.90;16.00
10245;DHT22;5167;52.164;10.530;2023-12-04T14:09:39;3.00;15.70
10245;DHT22;5167;52.164;10.530;2023-12-04T14:12:05;2.90;16.20
10245;DHT22;5167;52.164;10.530;2023-12-04T14:14:31;2.90;15.70
10245;DHT22;5167;52.164;10.530;2023-12-04T14:16:58;2.90;15.30
10245;DHT22;5167;52.164;10.530;2023-12-04T14:19:24;2.90;15.70
10245;DHT22;5167;52.164;10.530;2023-12-04T14:21:49;3.00;16.00
10245;DHT22;5167;52.164;10.530;2023-12-04T14:24:15;3.00;16.10
10245;DHT22;5167;52.164;10.530;2023-12-04T14:26:40;3.10;17.30
10245;DHT22;5167;52.164;10.530;2023-12-04T14:29:06;3.10;16.40
10245;DHT22;5167;52.164;10.530;2023-12-04T14:31:34;3.10;15.10
10245;DHT22;5167;52.164;10.530;2023-12-04T14:34:00;3.10;14.80
10245;DHT22;5167;52.164;10.530;2023-12-04T14:36:25;3.00;15.00
10245;DHT22;5167;52.164;10.530;2023-12-04T14:38:52;3.00;15.20
10245;DHT22;5167;52.164;10.530;2023-12-04T14:41:18;2.90;14.80
10245;DHT22;5167;52.164;10.530;2023-12-04T14:43:43;2.90;15.40
10245;DHT22;5167;52.164;10.530;2023-12-04T14:46:09;2.90;15.10
10245;DHT22;5167;52.164;10.530;2023-12-04T14:48:39;2.80;15.90
10245;DHT22;5167;52.164;10.530;2023-12-04T14:51:08;2.80;14.50
10245;DHT22;5167;52.164;10.530;2023-12-04T14:53:40;2.70;15.20
10245;DHT22;5167;52.164;10.530;2023-12-04T14:56:12;2.70;14.90
10245;DHT22;5167;52.164;10.530;2023-12-04T14:58:53;2.70;15.30
10245;DHT22;5167;52.164;10.530;2023-12-04T15:01:31;2.60;14.50
10245;DHT22;5167;52.164;10.530;2023-12-04T15:03:57;2.60;14.70
10245;DHT22;5167;52.164;10.530;2023-12-04T15:06:45;2.70;15.10
10245;DHT22;5167;52.164;10.530;2023-12-04T15:09:31;2.60;14.50
10245;DHT22;5167;52.164;10.530;2023-12-04T15:12:19;2.70;14.60
10245;DHT22;5167;52.164;10.530;2023-12-04T15:14:48;2.80;15.00
10245;DHT22;5167;52.164;10.530;2023-12-04T15:17:33;2.70;14.30
10245;DHT22;5167;52.164;10.530;2023-12-04T15:20:10;2.60;13.20
10245;DHT22;5167;52.164;10.530;2023-12-04T15:22:36;2.60;13.50
10245;DHT22;5167;52.164;10.530;2023-12-04T15:25:06;2.60;14.00
10245;DHT22;5167;52.164;10.530;2023-12-04T15:27:37;2.60;13.80
10245;DHT22;5167;52.164;10.530;2023-12-04T15:30:04;2.60;14.30
10245;DHT22;5167;52.164;10.530;2023-12-04T15:32:30;2.60;14.80
10245;DHT22;5167;52.164;10.530;2023-12-04T15:34:56;2.60;15.20
10245;DHT22;5167;52.164;10.530;2023-12-04T15:37:21;2.60;15.00
10245;DHT22;5167;52.164;10.530;2023-12-04T15:39:46;2.60;15.30
10245;DHT22;5167;52.164;10.530;2023-12-04T15:42:12;2.50;14.90
10245;DHT22;5167;52.164;10.530;2023-12-04T15:44:37;2.50;15.70
10245;DHT22;5167;52.164;10.530;2023-12-04T15:47:04;2.50;15.60